Time;durP1;ratioP1;P1;durP2;ratioP2;P2;SDS_P1;SDS_P2;PMS_P1;PMS_P2;Temp;Humidity;BMP_temperature;BMP_pressure;BME280_temperature;BME280_humidity;BME280_pressure;Samples;Min_cycle;Max_cycle;Signal;HPM_P1;HPM_P2
2023/12/06 00:00:47;;;;;;;58.63;29.60;;;0.50;99.90;;;;;;5048525;28;20082;-64
2023/12/06 00:03:12;;;;;;;60.55;31.08;;;0.50;99.90;;;;;;5049285;28;20095;-65
2023/12/06 00:05:39;;;;;;;59.78;30.40;;;0.50;99.90;;;;;;5057975;28;20072;-65
2023/12/06 00:08:05;;;;;;;58.78;30.30;;;0.50;99.90;;;;;;5062832;28;20116;-66
2023/12/06 00:10:31;;;;;;;53.65;29.48;;;0.50;99.90;;;;;;5074727;28;20131;-65
2023/12/06 00:12:57;;;;;;;56.13;29.00;;;0.50;99.90;;;;;;5050451;28;20691;-64
2023/12/06 00:15:22;;;;;;;58.70;30.00;;;0.50;99.90;;;;;;5059889;28;20051;-65
2023/12/06 00:17:48;;;;;;;55.13;29.70;;;1.20;99.90;;;;;;5049012;28;20056;-65
2023/12/06 00:20:14;;;;;;;55.53;29.70;;;0.60;99.90;;;;;;5054676;28;20037;-64
2023/12/06 00:22:40;;;;;;;55.92;29.10;;;0.50;99.90;;;;;;5052299;28;20409;-65
2023/12/06 00:25:06;;;;;;;54.45;28.33;;;0.50;99.90;;;;;;5054787;28;20045;-64
2023/12/06 00:27:32;;;;;;;53.70;28.20;;;0.60;99.90;;;;;;5051365;28;20675;-65
2023/12/06 00:29:57;;;;;;;51.13;27.38;;;1.10;99.90;;;;;;5058566;28;20047;-65
2023/12/06 00:32:23;;;;;;;53.42;28.23;;;0.80;99.90;;;;;;5054167;28;20048;-64
2023/12/06 00:34:48;;;;;;;54.38;29.20;;;0.50;99.90;;;;;;5056448;28;20401;-64
2023/12/06 00:37:14;;;;;;;57.83;28.20;;;0.60;99.90;;;;;;5043128;28;20078;-64
2023/12/06 00:39:40;;;;;;;53.85;27.55;;;0.60;99.90;;;;;;5061611;28;20287;-64
2023/12/06 00:42:06;;;;;;;52.22;28.55;;;0.60;99.90;;;;;;5053359;28;20437;-64
2023/12/06 00:44:32;;;;;;;53.95;27.85;;;0.60;99.90;;;;;;5050823;28;20048;-64
2023/12/06 00:46:57;;;;;;;47.95;26.42;;;0.60;99.90;;;;;;5052926;28;20041;-64
2023/12/06 00:49:23;;;;;;;51.13;27.30;;;0.60;99.90;;;;;;5052078;28;20051;-65
2023/12/06 00:51:49;;;;;;;48.53;26.95;;;0.60;99.90;;;;;;5048040;28;20583;-65
2023/12/06 00:54:15;;;;;;;51.70;26.48;;;0.60;99.90;;;;;;5051124;28;20119;-65
2023/12/06 00:56:40;;;;;;;48.85;26.17;;;0.60;99.90;;;;;;5052243;28;20071;-65
2023/12/06 00:59:06;;;;;;;48.95;27.42;;;0.60;99.90;;;;;;5048858;28;20032;-65
2023/12/06 01:01:32;;;;;;;50.45;26.67;;;0.60;99.90;;;;;;5054381;28;20540;-66
2023/12/06 01:03:58;;;;;;;45.40;25.63;;;0.60;99.90;;;;;;5046658;28;20064;-65
2023/12/06 01:06:23;;;;;;;48.13;26.10;;;0.60;99.90;;;;;;5053135;28;20041;-66
2023/12/06 01:08:49;;;;;;;49.55;26.45;;;0.60;99.90;;;;;;5051646;28;20064;-65
2023/12/06 01:11:15;;;;;;;48.60;25.40;;;0.60;99.90;;;;;;5050321;28;20512;-65
2023/12/06 01:13:41;;;;;;;47.55;26.42;;;0.60;99.90;;;;;;5058454;28;20063;-65
2023/12/06 01:16:07;;;;;;;47.65;24.98;;;1.50;99.90;;;;;;5055191;28;20149;-65
2023/12/06 01:18:33;;;;;;;45.03;25.58;;;0.60;99.90;;;;;;5046688;28;20044;-65
2023/12/06 01:20:59;;;;;;;43.58;24.30;;;1.00;99.90;;;;;;5054306;28;20109;-64
2023/12/06 01:23:25;;;;;;;46.05;24.65;;;0.60;99.90;;;;;;5045147;28;20496;-65
2023/12/06 01:25:51;;;;;;;49.10;26.08;;;0.60;99.90;;;;;;5076194;28;20113;-64
2023/12/06 01:28:16;;;;;;;45.17;25.05;;;0.60;99.90;;;;;;5051815;28;20397;-65
2023/12/06 01:30:42;;;;;;;46.25;25.65;;;0.60;99.90;;;;;;5046747;28;20048;-65
2023/12/06 01:33:08;;;;;;;44.70;25.15;;;0.60;99.90;;;;;;5051356;28;20073;-65
2023/12/06 01:35:33;;;;;;;45.35;25.42;;;0.60;99.90;;;;;;5051510;28;20454;-65
2023/12/06 01:37:59;;;;;;;44.65;25.17;;;0.60;99.90;;;;;;5050079;28;20044;-69
2023/12/06 01:40:25;;;;;;;43.45;24.10;;;0.70;99.90;;;;;;5044290;28;20132;-64
2023/12/06 01:42:51;;;;;;;45.47;25.17;;;0.60;99.90;;;;;;5055548;28;20158;-64
2023/12/06 01:45:17;;;;;;;44.95;25.95;;;0.70;99.90;;;;;;5062498;28;20064;-65
2023/12/06 01:47:44;;;;;;;49.22;25.80;;;0.70;99.90;;;;;;5057777;28;20823;-65
2023/12/06 01:50:11;;;;;;;48.30;25.10;;;0.70;99.90;;;;;;5050732;28;20487;-64
2023/12/06 01:52:37;;;;;;;45.45;24.85;;;0.70;99.90;;;;;;5056560;28;20045;-64
2023/12/06 01:55:03;;;;;;;41.65;23.50;;;0.70;99.90;;;;;;5055585;28;20066;-64
2023/12/06 01:57:30;;;;;;;44.63;23.75;;;0.70;99.90;;;;;;5056259;28;20044;-64
2023/12/06 01:59:56;;;;;;;42.30;24.63;;;0.70;99.90;;;;;;5050192;28;20053;-64
2023/12/06 02:02:23;;;;;;;42.13;23.65;;;0.70;99.90;;;;;;5079811;28;20088;-65
2023/12/06 02:04:49;;;;;;;39.28;22.02;;;0.70;99.90;;;;;;5061639;28;20041;-65
2023/12/06 02:07:16;;;;;;;40.58;23.85;;;1.10;99.90;;;;;;5062704;28;20094;-65
2023/12/06 02:09:42;;;;;;;41.33;22.42;;;0.70;99.90;;;;;;5062457;28;20048;-65
2023/12/06 02:12:08;;;;;;;37.40;22.20;;;0.70;99.90;;;;;;5057030;28;20059;-65
2023/12/06 02:14:35;;;;;;;40.40;22.33;;;0.70;99.90;;;;;;5049026;28;20044;-65
2023/12/06 02:17:05;;;;;;;37.30;22.00;;;0.70;99.90;;;;;;5056194;28;20048;-65
2023/12/06 02:19:31;;;;;;;37.45;22.33;;;0.70;99.90;;;;;;5053078;28;20083;-65
2023/12/06 02:21:58;;;;;;;37.95;21.63;;;0.30;99.90;;;;;;5056708;28;20071;-65
2023/12/06 02:24:28;;;;;;;38.58;21.92;;;0.70;99.90;;;;;;5032224;28;20080;-65
2023/12/06 02:26:54;;;;;;;35.13;20.83;;;1.00;99.90;;;;;;5061957;28;20450;-65
2023/12/06 02:29:23;;;;;;;39.58;22.27;;;0.70;99.90;;;;;;5054231;28;20132;-64
2023/12/06 02:31:49;;;;;;;36.55;20.58;;;0.70;99.90;;;;;;5056330;28;20067;-64
2023/12/06 02:34:26;;;;;;;34.83;20.60;;;0.70;99.90;;;;;;5060074;28;20044;-64
2023/12/06 02:37:01;;;;;;;34.50;19.77;;;0.80;99.90;;;;;;5053304;28;20049;-64
2023/12/06 02:39:29;;;;;;;35.92;22.13;;;0.70;99.90;;;;;;5053780;28;20055;-65
2023/12/06 02:41:55;;;;;;;37.50;20.63;;;0.70;99.90;;;;;;5060782;28;20040;-64
2023/12/06 02:44:21;;;;;;;34.30;20.45;;;0.70;99.90;;;;;;5034442;28;20045;-64
2023/12/06 02:46:46;;;;;;;32.70;20.38;;;0.80;99.90;;;;;;5052043;28;20051;-64
2023/12/06 02:49:12;;;;;;;33.50;20.38;;;0.70;99.90;;;;;;5039502;28;20048;-64
2023/12/06 02:51:38;;;;;;;34.63;20.05;;;0.80;99.90;;;;;;5051418;28;20768;-64
2023/12/06 02:54:03;;;;;;;35.05;20.35;;;0.80;99.90;;;;;;5033194;28;20028;-64
2023/12/06 02:56:29;;;;;;;30.35;18.38;;;0.70;99.90;;;;;;5053505;28;20056;-64
2023/12/06 02:58:55;;;;;;;32.28;19.17;;;0.80;99.90;;;;;;5042505;28;20413;-64
2023/12/06 03:01:21;;;;;;;32.08;20.05;;;0.80;99.90;;;;;;5057502;28;20044;-64
2023/12/06 03:03:46;;;;;;;27.00;17.70;;;0.80;99.90;;;;;;5058555;28;20060;-64
2023/12/06 03:06:12;;;;;;;30.77;19.50;;;0.70;99.90;;;;;;5054962;28;20450;-64
2023/12/06 03:08:38;;;;;;;29.98;18.65;;;0.80;99.90;;;;;;5071120;28;20124;-64
2023/12/06 03:11:03;;;;;;;30.70;18.83;;;0.80;99.90;;;;;;5062478;28;20406;-64
2023/12/06 03:13:29;;;;;;;30.83;18.08;;;1.60;99.90;;;;;;5051087;28;20048;-65
2023/12/06 03:15:55;;;;;;;27.60;17.10;;;0.80;99.90;;;;;;5053936;28;20048;-64
2023/12/06 03:18:21;;;;;;;30.98;18.30;;;0.80;99.90;;;;;;5060053;28;20504;-65
2023/12/06 03:20:46;;;;;;;28.10;16.77;;;0.80;99.90;;;;;;5059501;28;20473;-64
2023/12/06 03:23:12;;;;;;;28.48;17.58;;;0.80;99.90;;;;;;5056587;28;20492;-64
2023/12/06 03:25:38;;;;;;;28.55;17.33;;;0.80;99.90;;;;;;5051698;28;20048;-64
2023/12/06 03:28:04;;;;;;;32.38;18.13;;;0.80;99.90;;;;;;5058654;28;20045;-64
2023/12/06 03:30:29;;;;;;;28.52;17.40;;;0.80;99.90;;;;;;5048216;28;20107;-64
2023/12/06 03:32:55;;;;;;;30.88;18.20;;;0.80;99.90;;;;;;5058104;28;20048;-65
2023/12/06 03:35:21;;;;;;;29.40;16.92;;;0.80;99.90;;;;;;5052273;28;20460;-65
2023/12/06 03:37:47;;;;;;;27.52;16.50;;;0.80;99.90;;;;;;5069267;28;20205;-64
2023/12/06 03:40:13;;;;;;;29.65;17.17;;;0.80;99.90;;;;;;5053368;28;20123;-64
2023/12/06 03:42:39;;;;;;;26.27;16.08;;;0.80;99.90;;;;;;5056240;28;20564;-64
2023/12/06 03:45:06;;;;;;;30.65;16.67;;;1.00;99.90;;;;;;5060407;28;20094;-64
2023/12/06 03:47:31;;;;;;;27.75;16.70;;;0.80;99.90;;;;;;5049789;28;20049;-64
2023/12/06 03:49:57;;;;;;;26.38;16.58;;;0.80;99.90;;;;;;5050441;28;20033;-65
2023/12/06 03:52:23;;;;;;;27.05;16.63;;;0.80;99.90;;;;;;5050191;28;20056;-64
2023/12/06 03:54:49;;;;;;;26.63;16.75;;;1.20;99.90;;;;;;5058766;28;20072;-64
2023/12/06 03:57:14;;;;;;;28.20;16.50;;;0.80;99.90;;;;;;5055446;28;20421;-64
2023/12/06 03:59:40;;;;;;;23.40;15.80;;;0.80;99.90;;;;;;5058913;28;20189;-64
2023/12/06 04:02:06;;;;;;;26.48;15.52;;;0.80;99.90;;;;;;5051291;28;20040;-64
2023/12/06 04:04:31;;;;;;;24.75;15.77;;;0.80;99.90;;;;;;5051996;28;20828;-64
2023/12/06 04:06:57;;;;;;;28.05;16.30;;;0.80;99.90;;;;;;5053157;28;20041;-64
2023/12/06 04:09:23;;;;;;;24.17;16.02;;;0.80;99.90;;;;;;5055957;28;20132;-64
2023/12/06 04:11:48;;;;;;;23.25;14.25;;;0.80;99.90;;;;;;5063579;28;20531;-64
2023/12/06 04:14:14;;;;;;;26.20;15.38;;;0.80;99.90;;;;;;5064713;28;20557;-64
2023/12/06 04:16:40;;;;;;;25.23;15.00;;;1.00;99.90;;;;;;5050269;28;20057;-64
2023/12/06 04:19:06;;;;;;;24.40;14.80;;;0.80;99.90;;;;;;5042476;28;20072;-64
2023/12/06 04:21:31;;;;;;;25.48;15.75;;;1.20;99.90;;;;;;5051855;28;20052;-64
2023/12/06 04:23:57;;;;;;;24.38;15.40;;;0.90;99.90;;;;;;5050626;28;21094;-64
2023/12/06 04:26:23;;;;;;;25.75;15.65;;;1.20;99.90;;;;;;5052243;28;20033;-64
2023/12/06 04:28:53;;;;;;;23.58;15.27;;;0.80;99.90;;;;;;5047224;28;20045;-64
2023/12/06 04:31:18;;;;;;;25.48;15.52;;;0.90;99.90;;;;;;5052686;28;20566;-64
2023/12/06 04:33:44;;;;;;;25.23;15.73;;;2.00;99.90;;;;;;5057443;28;20186;-64
2023/12/06 04:36:12;;;;;;;24.75;14.93;;;0.90;99.90;;;;;;5057443;28;20151;-63
2023/12/06 04:38:38;;;;;;;23.10;14.95;;;0.80;99.90;;;;;;5053368;28;20057;-64
2023/12/06 04:41:04;;;;;;;25.88;14.82;;;0.90;99.90;;;;;;5059813;28;20049;-64
2023/12/06 04:43:30;;;;;;;24.02;14.95;;;0.90;99.90;;;;;;5061702;28;20485;-63
2023/12/06 04:45:56;;;;;;;26.77;14.85;;;1.40;99.90;;;;;;5064453;28;20086;-64
2023/12/06 04:48:22;;;;;;;24.77;14.65;;;0.90;99.90;;;;;;5061919;28;20541;-63
2023/12/06 04:50:47;;;;;;;24.45;15.05;;;0.90;99.90;;;;;;5062632;28;20043;-64
2023/12/06 04:53:13;;;;;;;25.25;15.18;;;1.00;99.90;;;;;;5074070;28;20039;-64
2023/12/06 04:55:38;;;;;;;24.05;14.82;;;1.00;99.90;;;;;;5052728;28;20048;-64
2023/12/06 04:58:05;;;;;;;22.17;14.20;;;0.90;99.90;;;;;;5050142;28;20436;-65
2023/12/06 05:00:31;;;;;;;23.80;15.00;;;0.90;99.90;;;;;;5031799;28;20076;-64
2023/12/06 05:02:57;;;;;;;23.35;14.68;;;0.90;99.90;;;;;;5052754;28;20160;-64
2023/12/06 05:05:22;;;;;;;23.38;15.45;;;1.00;99.90;;;;;;5038816;28;20053;-64
2023/12/06 05:07:48;;;;;;;25.65;14.25;;;0.90;99.90;;;;;;5046890;28;20070;-65
2023/12/06 05:10:14;;;;;;;23.80;14.82;;;0.90;99.90;;;;;;5063383;28;20671;-65
2023/12/06 05:12:40;;;;;;;21.63;14.25;;;0.90;99.90;;;;;;5069676;28;20585;-64
2023/12/06 05:15:06;;;;;;;24.70;13.95;;;0.90;99.90;;;;;;5050549;28;20047;-64
2023/12/06 05:17:32;;;;;;;22.05;13.38;;;0.90;99.90;;;;;;5049857;28;20649;-64
2023/12/06 05:19:57;;;;;;;23.13;14.43;;;1.00;99.90;;;;;;5050590;28;20339;-64
2023/12/06 05:22:24;;;;;;;24.00;13.82;;;0.90;99.90;;;;;;5054280;28;20052;-65
2023/12/06 05:24:52;;;;;;;23.83;15.02;;;1.00;99.90;;;;;;5060755;28;20113;-65
2023/12/06 05:27:18;;;;;;;24.83;14.48;;;1.00;99.90;;;;;;5064519;28;20044;-64
2023/12/06 05:29:44;;;;;;;26.48;14.82;;;1.00;99.90;;;;;;5044457;28;20073;-63
2023/12/06 05:32:10;;;;;;;23.52;14.20;;;1.00;99.90;;;;;;5065409;28;20052;-64
2023/12/06 05:34:36;;;;;;;23.27;14.25;;;1.00;99.90;;;;;;5060546;28;20758;-64
2023/12/06 05:37:02;;;;;;;24.77;14.13;;;1.10;99.90;;;;;;5065252;28;20874;-64
2023/12/06 05:39:28;;;;;;;23.02;14.43;;;1.00;99.90;;;;;;5061270;28;20048;-63
2023/12/06 05:41:53;;;;;;;22.20;13.73;;;1.00;99.90;;;;;;5042802;28;20044;-63
2023/12/06 05:44:19;;;;;;;22.85;14.90;;;1.50;99.90;;;;;;5059680;28;20036;-63
2023/12/06 05:46:45;;;;;;;21.75;13.52;;;1.00;99.90;;;;;;5051428;28;20040;-63
2023/12/06 05:49:10;;;;;;;21.65;14.88;;;1.00;99.90;;;;;;5053882;28;20049;-65
2023/12/06 05:51:36;;;;;;;22.25;13.70;;;1.00;99.90;;;;;;5050962;28;20393;-64
2023/12/06 05:54:03;;;;;;;24.08;14.35;;;1.00;99.90;;;;;;5047417;28;20079;-63
2023/12/06 05:56:29;;;;;;;23.20;14.35;;;1.00;99.90;;;;;;5047958;28;20639;-64
2023/12/06 05:58:54;;;;;;;22.08;13.73;;;1.10;99.90;;;;;;5050535;28;20048;-64
2023/12/06 06:01:20;;;;;;;23.38;13.95;;;1.10;99.90;;;;;;5050134;28;20045;-64
2023/12/06 06:03:46;;;;;;;21.95;13.75;;;1.00;99.90;;;;;;5054741;28;20068;-64
2023/12/06 06:06:12;;;;;;;25.67;14.93;;;1.00;99.90;;;;;;5061456;28;20048;-64
2023/12/06 06:08:37;;;;;;;24.50;14.15;;;1.10;99.90;;;;;;5063403;28;20072;-64
2023/12/06 06:11:05;;;;;;;22.58;13.50;;;1.10;99.90;;;;;;5054583;28;20049;-64
2023/12/06 06:13:30;;;;;;;22.35;13.88;;;1.10;99.90;;;;;;5045000;28;20056;-65
2023/12/06 06:15:56;;;;;;;25.23;14.43;;;1.10;99.90;;;;;;5049508;28;20044;-64
2023/12/06 06:18:23;;;;;;;23.83;14.52;;;1.10;99.90;;;;;;5058969;28;20040;-64
2023/12/06 06:20:49;;;;;;;22.38;13.02;;;1.10;99.90;;;;;;5059203;28;20036;-64
2023/12/06 06:23:14;;;;;;;24.73;13.50;;;1.40;99.90;;;;;;5053901;28;20514;-64
2023/12/06 06:25:40;;;;;;;25.23;13.43;;;1.20;99.90;;;;;;5051919;28;20123;-64
2023/12/06 06:28:06;;;;;;;19.88;13.52;;;1.10;99.90;;;;;;5055489;28;20048;-64
2023/12/06 06:30:32;;;;;;;22.77;13.20;;;1.10;99.90;;;;;;5043130;28;20413;-69
2023/12/06 06:32:58;;;;;;;19.23;12.80;;;1.10;99.90;;;;;;5055415;28;20037;-64
2023/12/06 06:35:23;;;;;;;22.38;14.00;;;1.90;99.90;;;;;;5055286;28;20555;-64
2023/12/06 06:37:49;;;;;;;19.23;12.75;;;1.10;99.90;;;;;;5059013;28;20040;-64
2023/12/06 06:40:15;;;;;;;20.45;11.32;;;1.10;99.90;;;;;;5051859;28;20072;-65
2023/12/06 06:42:42;;;;;;;18.17;12.75;;;1.10;99.90;;;;;;5068970;28;20059;-65
2023/12/06 06:45:09;;;;;;;19.73;12.32;;;1.10;99.90;;;;;;5056353;28;20412;-65
2023/12/06 06:47:36;;;;;;;19.30;11.77;;;1.10;99.90;;;;;;5048807;28;20487;-64
2023/12/06 06:50:04;;;;;;;19.83;12.18;;;1.10;99.90;;;;;;5049003;28;20461;-64
2023/12/06 06:52:30;;;;;;;19.92;11.32;;;1.10;99.90;;;;;;5053665;28;20049;-64
2023/12/06 06:54:56;;;;;;;19.77;12.55;;;1.10;99.90;;;;;;5066614;28;20059;-64
2023/12/06 06:57:22;;;;;;;18.13;11.45;;;1.20;99.90;;;;;;5052854;28;20170;-65
2023/12/06 06:59:48;;;;;;;20.30;11.65;;;1.10;99.90;;;;;;5048191;28;20135;-64
2023/12/06 07:02:14;;;;;;;18.63;12.07;;;1.10;99.90;;;;;;5041005;28;20123;-64
2023/12/06 07:04:41;;;;;;;17.88;10.93;;;1.20;99.90;;;;;;5043942;28;20052;-64
2023/12/06 07:07:07;;;;;;;17.63;11.82;;;1.10;99.90;;;;;;5053129;28;20405;-65
2023/12/06 07:09:32;;;;;;;18.92;11.30;;;1.20;99.90;;;;;;5042634;28;20036;-63
2023/12/06 07:11:58;;;;;;;21.08;11.85;;;0.40;99.90;;;;;;5049627;28;20154;-63
2023/12/06 07:14:24;;;;;;;21.38;11.82;;;1.10;99.90;;;;;;5066148;28;20205;-64
2023/12/06 07:16:50;;;;;;;20.08;11.68;;;1.20;99.90;;;;;;5060748;28;20044;-64
2023/12/06 07:19:18;;;;;;;19.98;11.82;;;1.80;99.90;;;;;;5066975;28;20157;-64
2023/12/06 07:21:44;;;;;;;21.15;11.23;;;1.20;99.90;;;;;;5066608;28;20578;-65
2023/12/06 07:24:11;;;;;;;19.30;11.57;;;1.20;99.90;;;;;;5058611;28;20040;-64
2023/12/06 07:26:37;;;;;;;21.83;11.93;;;1.20;99.90;;;;;;5055998;28;20135;-64
2023/12/06 07:29:03;;;;;;;16.98;11.07;;;1.20;99.90;;;;;;5070269;28;20615;-63
2023/12/06 07:31:29;;;;;;;17.27;12.18;;;1.20;99.90;;;;;;5064971;28;20033;-64
2023/12/06 07:33:55;;;;;;;18.08;11.85;;;1.20;99.90;;;;;;5053885;28;20048;-64
2023/12/06 07:36:21;;;;;;;18.38;11.70;;;1.20;99.90;;;;;;5064174;28;20045;-64
2023/12/06 07:38:47;;;;;;;18.45;12.00;;;1.20;99.90;;;;;;5056457;28;20060;-64
2023/12/06 07:41:13;;;;;;;17.45;11.43;;;1.60;99.90;;;;;;5057961;28;20508;-64
2023/12/06 07:43:39;;;;;;;19.60;11.55;;;1.20;99.90;;;;;;5055404;28;20049;-63
2023/12/06 07:46:05;;;;;;;20.70;12.43;;;1.20;99.90;;;;;;5064122;28;20045;-63
2023/12/06 07:48:33;;;;;;;17.80;12.25;;;1.20;99.90;;;;;;5061985;28;20048;-63
2023/12/06 07:50:59;;;;;;;17.90;12.10;;;1.20;99.90;;;;;;5057221;28;20110;-63
2023/12/06 07:53:25;;;;;;;19.90;12.52;;;1.30;99.90;;;;;;5052868;28;20057;-64
2023/12/06 07:55:54;;;;;;;23.10;11.98;;;1.40;99.90;;;;;;5053089;28;20486;-64
2023/12/06 07:58:24;;;;;;;20.60;12.73;;;1.30;99.90;;;;;;5064347;28;20106;-64
2023/12/06 08:00:49;;;;;;;17.45;11.70;;;1.30;99.90;;;;;;5058505;28;20517;-64
2023/12/06 08:03:16;;;;;;;19.08;12.98;;;1.30;99.90;;;;;;5057685;28;20134;-64
2023/12/06 08:05:42;;;;;;;20.98;12.82;;;1.30;99.90;;;;;;5051209;28;20151;-64
2023/12/06 08:08:08;;;;;;;20.55;12.02;;;1.30;99.90;;;;;;5064005;28;20450;-64
2023/12/06 08:10:34;;;;;;;23.25;13.20;;;1.30;99.90;;;;;;5058869;28;20053;-64
2023/12/06 08:13:03;;;;;;;19.60;13.02;;;1.30;99.90;;;;;;5055026;28;20390;-64
2023/12/06 08:15:29;;;;;;;17.88;12.82;;;2.20;99.90;;;;;;5063899;28;20083;-65
2023/12/06 08:17:56;;;;;;;20.15;12.35;;;1.30;99.90;;;;;;5068952;28;20048;-64
2023/12/06 08:20:22;;;;;;;23.77;13.57;;;1.30;99.90;;;;;;5054363;28;20812;-64
2023/12/06 08:22:48;;;;;;;20.08;12.40;;;1.30;99.90;;;;;;5056786;28;20131;-65
2023/12/06 08:25:13;;;;;;;18.52;11.90;;;1.30;99.90;;;;;;5056274;28;20587;-65
2023/12/06 08:27:40;;;;;;;21.15;13.30;;;1.30;99.90;;;;;;5053435;28;20561;-69
2023/12/06 08:30:06;;;;;;;22.20;12.75;;;1.30;99.90;;;;;;5054992;28;20406;-65
2023/12/06 08:32:32;;;;;;;20.73;11.75;;;1.30;99.90;;;;;;5057987;28;20047;-65
2023/12/06 08:34:57;;;;;;;20.48;13.05;;;1.30;99.90;;;;;;5064030;28;20456;-64
2023/12/06 08:37:23;;;;;;;20.40;12.57;;;1.30;99.90;;;;;;5056080;28;20164;-65
2023/12/06 08:39:50;;;;;;;20.67;12.68;;;1.40;99.90;;;;;;5059640;28;20378;-65
2023/12/06 08:42:16;;;;;;;20.77;13.40;;;1.30;99.90;;;;;;5061402;28;20123;-65
2023/12/06 08:44:42;;;;;;;22.20;13.68;;;1.40;99.90;;;;;;5058609;28;20143;-65
2023/12/06 08:47:09;;;;;;;22.65;12.70;;;1.40;99.90;;;;;;5062417;28;20563;-66
2023/12/06 08:49:37;;;;;;;21.40;12.40;;;1.60;99.90;;;;;;5066388;28;20504;-65
2023/12/06 08:52:03;;;;;;;20.38;13.15;;;1.40;99.90;;;;;;5059184;28;20033;-65
2023/12/06 08:54:29;;;;;;;20.48;13.27;;;1.40;99.90;;;;;;5064125;28;20048;-65
2023/12/06 08:56:55;;;;;;;18.33;12.43;;;1.50;99.90;;;;;;5040318;28;20075;-65
2023/12/06 08:59:23;;;;;;;20.33;12.25;;;1.50;99.90;;;;;;5064364;28;20105;-66
2023/12/06 09:01:49;;;;;;;22.33;13.27;;;1.50;99.90;;;;;;5046441;28;20049;-67
2023/12/06 09:04:14;;;;;;;23.60;13.48;;;1.50;99.90;;;;;;5046391;28;20469;-66
2023/12/06 09:06:40;;;;;;;20.02;13.10;;;1.40;99.90;;;;;;5050125;28;20161;-65
2023/12/06 09:09:07;;;;;;;19.20;12.48;;;1.50;99.90;;;;;;5033984;28;20106;-66
2023/12/06 09:11:33;;;;;;;19.02;13.05;;;1.50;99.90;;;;;;5052141;28;20171;-65
2023/12/06 09:13:59;;;;;;;22.88;12.93;;;1.60;99.90;;;;;;5052582;28;20117;-65
2023/12/06 09:16:24;;;;;;;18.63;11.40;;;1.50;99.90;;;;;;5050551;28;20048;-65
2023/12/06 09:18:52;;;;;;;17.80;11.95;;;1.50;99.90;;;;;;5052307;28;20044;-66
2023/12/06 09:21:18;;;;;;;18.65;11.45;;;1.50;99.90;;;;;;5049241;28;20083;-65
2023/12/06 09:23:44;;;;;;;16.38;11.20;;;1.50;99.90;;;;;;5046575;28;20540;-65
2023/12/06 09:26:09;;;;;;;19.60;11.82;;;1.50;99.90;;;;;;5034960;28;20550;-65
2023/12/06 09:28:38;;;;;;;22.20;11.98;;;1.50;99.90;;;;;;5048149;28;20079;-65
2023/12/06 09:31:05;;;;;;;18.27;11.80;;;1.60;99.90;;;;;;5047493;28;20636;-65
2023/12/06 09:33:31;;;;;;;17.70;12.40;;;1.30;99.90;;;;;;5049389;28;20169;-64
2023/12/06 09:35:57;;;;;;;24.23;12.85;;;1.60;99.90;;;;;;5048639;28;20135;-66
2023/12/06 09:38:23;;;;;;;21.88;12.73;;;1.60;99.90;;;;;;5051827;28;20048;-66
2023/12/06 09:40:48;;;;;;;22.08;12.73;;;1.70;99.90;;;;;;5051852;28;20044;-65
2023/12/06 09:43:18;;;;;;;19.50;12.05;;;1.70;99.90;;;;;;5046577;28;20076;-66
2023/12/06 09:45:45;;;;;;;21.52;11.75;;;1.70;99.90;;;;;;5033061;28;20080;-66
2023/12/06 09:48:11;;;;;;;21.48;11.93;;;1.80;99.90;;;;;;5047965;28;20036;-66
2023/12/06 09:50:37;;;;;;;18.77;11.05;;;1.80;99.90;;;;;;5050164;28;20394;-67
2023/12/06 09:53:03;;;;;;;20.35;11.30;;;1.80;99.90;;;;;;5043058;28;20793;-66
2023/12/06 09:55:35;;;;;;;21.90;11.52;;;1.80;99.90;;;;;;5055755;28;20051;-65
2023/12/06 09:58:01;;;;;;;18.85;10.80;;;1.80;99.90;;;;;;5050008;28;20528;-66
2023/12/06 10:00:26;;;;;;;19.98;10.95;;;2.70;99.90;;;;;;5025523;28;20059;-66
2023/12/06 10:02:54;;;;;;;16.75;10.40;;;1.90;99.90;;;;;;5047215;28;20441;-66
2023/12/06 10:05:21;;;;;;;21.15;10.05;;;1.90;99.90;;;;;;5052122;28;20139;-66
2023/12/06 10:07:47;;;;;;;19.58;10.40;;;2.00;99.90;;;;;;5048353;28;20048;-66
2023/12/06 10:10:21;;;;;;;25.02;11.32;;;2.00;99.90;;;;;;5040270;28;20044;-66
2023/12/06 10:12:57;;;;;;;14.13;8.77;;;2.00;99.90;;;;;;5056455;28;20045;-66
2023/12/06 10:15:24;;;;;;;14.30;8.73;;;2.00;99.90;;;;;;5061907;28;20052;-65
2023/12/06 10:17:53;;;;;;;16.50;9.02;;;2.00;99.90;;;;;;5063093;28;20052;-66
2023/12/06 10:20:22;;;;;;;12.00;8.60;;;2.00;99.90;;;;;;5067865;28;20048;-64
2023/12/06 10:22:47;;;;;;;17.83;8.98;;;2.00;99.90;;;;;;5063850;28;20059;-65
2023/12/06 10:25:13;;;;;;;13.55;9.02;;;2.00;99.90;;;;;;5061024;28;21586;-66
2023/12/06 10:27:39;;;;;;;18.63;9.63;;;2.00;99.90;;;;;;5049860;28;20055;-66
2023/12/06 10:30:06;;;;;;;14.70;8.52;;;2.10;99.90;;;;;;5058779;28;20044;-66
2023/12/06 10:32:32;;;;;;;15.60;9.10;;;2.00;99.90;;;;;;5063197;28;20037;-66
2023/12/06 10:35:00;;;;;;;14.45;9.57;;;2.00;99.90;;;;;;5062574;28;20131;-67
2023/12/06 10:37:27;;;;;;;13.15;9.05;;;2.10;99.90;;;;;;5061931;28;20051;-66
2023/12/06 10:40:09;;;;;;;16.55;8.70;;;2.00;99.90;;;;;;5065183;28;20053;-67
2023/12/06 10:42:36;;;;;;;14.70;8.77;;;2.10;99.90;;;;;;5059287;28;20056;-67
2023/12/06 10:45:03;;;;;;;14.70;8.75;;;2.10;99.90;;;;;;5060920;28;20115;-67
2023/12/06 10:47:31;;;;;;;14.00;8.43;;;2.10;99.90;;;;;;5060144;28;20060;-67
2023/12/06 10:49:58;;;;;;;12.98;8.88;;;2.10;99.90;;;;;;5061161;28;20118;-67
2023/12/06 10:52:24;;;;;;;16.60;9.52;;;2.10;99.90;;;;;;5062429;28;20127;-66
2023/12/06 10:54:51;;;;;;;12.43;8.85;;;2.10;99.90;;;;;;5066154;28;20045;-66
2023/12/06 10:57:20;;;;;;;16.25;10.02;;;2.10;99.90;;;;;;5059259;28;20049;-66
2023/12/06 10:59:46;;;;;;;13.77;9.13;;;2.40;99.90;;;;;;5057900;28;20187;-67
2023/12/06 11:02:12;;;;;;;18.27;9.52;;;2.10;99.90;;;;;;5056547;28;20059;-67
2023/12/06 11:05:06;;;;;;;15.02;10.60;;;1.50;99.90;;;;;;5045210;28;20044;-66
2023/12/06 11:07:54;;;;;;;16.83;10.48;;;2.20;99.90;;;;;;5053904;28;20057;-66
2023/12/06 11:10:45;;;;;;;16.23;9.85;;;2.20;99.90;;;;;;5051483;28;20040;-67
2023/12/06 11:13:29;;;;;;;16.63;9.80;;;2.30;99.90;;;;;;5056876;28;20037;-67
2023/12/06 11:16:01;;;;;;;16.17;10.57;;;2.20;99.90;;;;;;5062808;28;20180;-66
2023/12/06 11:18:37;;;;;;;16.15;10.27;;;2.20;99.90;;;;;;5060159;28;20527;-66
2023/12/06 11:21:04;;;;;;;13.80;9.75;;;2.20;99.90;;;;;;5056750;28;20057;-66
2023/12/06 11:23:30;;;;;;;13.45;8.98;;;2.90;99.90;;;;;;5065451;28;20882;-65
2023/12/06 11:25:56;;;;;;;16.05;9.55;;;2.30;99.90;;;;;;5063865;28;20048;-66
2023/12/06 11:28:22;;;;;;;17.45;10.15;;;2.30;99.90;;;;;;5061888;28;20133;-67
2023/12/06 11:30:58;;;;;;;18.77;10.38;;;2.30;99.90;;;;;;5056904;28;20473;-66
2023/12/06 11:33:24;;;;;;;22.67;10.77;;;2.40;99.90;;;;;;5053648;28;20056;-66
2023/12/06 11:35:51;;;;;;;18.27;10.43;;;2.40;99.90;;;;;;5056141;28;20127;-66
2023/12/06 11:38:18;;;;;;;15.88;9.55;;;2.30;99.90;;;;;;5052513;28;20049;-66
2023/12/06 11:40:53;;;;;;;17.00;9.60;;;2.50;99.90;;;;;;5061836;28;20064;-66
2023/12/06 11:43:33;;;;;;;14.05;9.80;;;2.40;99.90;;;;;;5055776;28;20076;-66
2023/12/06 11:46:07;;;;;;;15.27;9.63;;;2.40;99.90;;;;;;5059471;28;20473;-66
2023/12/06 11:48:39;;;;;;;17.85;10.00;;;2.40;99.90;;;;;;5061021;28;20054;-67
2023/12/06 11:51:05;;;;;;;14.73;9.30;;;2.50;99.90;;;;;;5063974;28;20118;-66
2023/12/06 11:53:34;;;;;;;16.60;8.82;;;2.40;99.90;;;;;;5060425;28;20046;-66
2023/12/06 11:56:00;;;;;;;14.48;9.05;;;2.40;99.90;;;;;;5043643;28;20443;-66
2023/12/06 11:58:30;;;;;;;15.27;9.20;;;2.40;99.90;;;;;;5062260;28;20044;-66
2023/12/06 12:00:59;;;;;;;15.10;9.70;;;2.50;99.90;;;;;;5062010;28;20082;-64
2023/12/06 12:03:26;;;;;;;13.63;9.15;;;2.40;99.90;;;;;;5043786;28;20048;-65
2023/12/06 12:05:54;;;;;;;14.95;9.75;;;2.50;99.90;;;;;;5055708;28;20055;-63
2023/12/06 12:08:19;;;;;;;14.98;8.95;;;2.50;99.90;;;;;;5048001;28;20160;-64
2023/12/06 12:10:46;;;;;;;14.95;9.25;;;2.50;99.90;;;;;;5059274;28;20140;-64
2023/12/06 12:13:19;;;;;;;14.02;9.50;;;2.50;99.90;;;;;;5043556;28;20245;-64
2023/12/06 12:15:57;;;;;;;15.88;9.10;;;2.50;99.90;;;;;;5038524;28;20057;-64
2023/12/06 12:18:27;;;;;;;15.23;9.55;;;2.50;99.90;;;;;;5060103;28;20090;-65
2023/12/06 12:20:55;;;;;;;14.05;9.52;;;2.50;99.90;;;;;;5060760;28;20090;-64
2023/12/06 12:23:22;;;;;;;14.57;8.88;;;2.50;99.90;;;;;;5062168;28;20044;-64
2023/12/06 12:25:54;;;;;;;13.73;8.90;;;2.50;99.90;;;;;;5057850;28;20070;-65
2023/12/06 12:28:24;;;;;;;16.95;9.48;;;2.50;99.90;;;;;;5043046;28;20036;-64
2023/12/06 12:31:01;;;;;;;22.20;9.73;;;2.50;99.90;;;;;;5054643;28;20045;-65
2023/12/06 12:33:28;;;;;;;12.68;8.73;;;2.60;99.90;;;;;;5043791;28;20048;-64
2023/12/06 12:35:56;;;;;;;14.40;8.98;;;2.60;99.90;;;;;;5060036;28;20707;-64